TimeMDT,TemperatureF,Dew PointF,Humidity,Sea Level PressureIn,VisibilityMPH,Wind Direction,Wind SpeedMPH,Gust SpeedMPH,PrecipitationIn,Events,Conditions,WindDirDegrees,DateUTC
12:15 AM,55.4,28.4,36,29.81,10.0,WNW,3.5,-,N/A,,Clear,300,2013-06-19 06:15:00
12:35 AM,51.8,32.0,47,29.81,10.0,NE,3.5,-,N/A,,Clear,50,2013-06-19 06:35:00
12:55 AM,53.6,32.0,44,29.81,10.0,Calm,Calm,-,N/A,,Clear,0,2013-06-19 06:55:00
1:15 AM,51.8,32.0,47,29.81,10.0,Calm,Calm,-,N/A,,Clear,0,2013-06-19 07:15:00
1:35 AM,50.0,32.0,50,29.81,10.0,WNW,4.6,-,N/A,,Clear,290,2013-06-19 07:35:00
1:55 AM,51.8,30.2,44,29.81,10.0,NE,3.5,-,N/A,,Clear,40,2013-06-19 07:55:00
2:15 AM,51.8,30.2,44,29.80,10.0,ENE,3.5,-,N/A,,Clear,60,2013-06-19 08:15:00
2:35 AM,51.8,30.2,44,29.81,10.0,ENE,3.5,-,N/A,,Clear,70,2013-06-19 08:35:00
2:55 AM,53.6,28.4,38,29.79,10.0,ENE,4.6,-,N/A,,Clear,70,2013-06-19 08:55:00
3:15 AM,57.2,24.8,29,29.79,10.0,Calm,Calm,-,N/A,,Clear,0,2013-06-19 09:15:00
3:35 AM,55.4,26.6,33,29.78,10.0,Calm,Calm,-,N/A,,Clear,0,2013-06-19 09:35:00
3:55 AM,57.2,26.6,31,29.78,10.0,Calm,Calm,-,N/A,,Clear,0,2013-06-19 09:55:00
4:15 AM,59.0,21.2,23,29.78,10.0,Calm,Calm,-,N/A,,Clear,0,2013-06-19 10:15:00
4:35 AM,53.6,26.6,35,29.78,10.0,East,4.6,-,N/A,,Clear,90,2013-06-19 10:35:00
4:55 AM,59.0,23.0,25,29.78,10.0,West,6.9,-,N/A,,Clear,280,2013-06-19 10:55:00
5:15 AM,53.6,26.6,35,29.78,10.0,NW,5.8,-,N/A,,Clear,310,2013-06-19 11:15:00
5:35 AM,50.0,26.6,40,29.78,10.0,Calm,Calm,-,N/A,,Clear,0,2013-06-19 11:35:00
5:55 AM,50.0,26.6,40,29.78,10.0,WNW,5.8,-,N/A,,Clear,290,2013-06-19 11:55:00
6:15 AM,55.4,24.8,31,29.77,10.0,South,3.5,-,N/A,,Clear,180,2013-06-19 12:15:00
6:35 AM,51.8,28.4,41,29.78,10.0,Calm,Calm,-,N/A,,Clear,0,2013-06-19 12:35:00
6:55 AM,60.8,23.0,23,29.78,10.0,WNW,3.5,-,N/A,,Clear,300,2013-06-19 12:55:00
7:15 AM,68.0,19.4,16,29.77,10.0,SSE,13.8,20.7,N/A,,Clear,160,2013-06-19 13:15:00
7:35 AM,69.8,19.4,15,29.77,10.0,SSE,12.7,24.2,N/A,,Clear,160,2013-06-19 13:35:00
7:55 AM,71.6,19.4,14,29.77,10.0,SSE,13.8,24.2,N/A,,Clear,160,2013-06-19 13:55:00
8:15 AM,71.6,19.4,14,29.77,10.0,South,16.1,20.7,N/A,,Clear,170,2013-06-19 14:15:00
8:35 AM,73.4,21.2,14,29.77,10.0,South,12.7,24.2,N/A,,Clear,170,2013-06-19 14:35:00
8:55 AM,73.4,21.2,14,29.78,10.0,SSE,11.5,25.3,N/A,,Clear,160,2013-06-19 14:55:00
9:15 AM,75.2,21.2,13,29.78,10.0,South,16.1,27.6,N/A,,Clear,170,2013-06-19 15:15:00
9:35 AM,75.2,21.2,13,29.78,10.0,South,10.4,25.3,N/A,,Clear,170,2013-06-19 15:35:00
9:55 AM,77.0,21.2,12,29.78,10.0,SSW,10.4,19.6,N/A,,Clear,200,2013-06-19 15:55:00
10:15 AM,77.0,23.0,13,29.78,10.0,SW,20.7,28.8,N/A,,Clear,230,2013-06-19 16:15:00
10:35 AM,77.0,23.0,13,29.78,10.0,SW,21.9,31.1,N/A,,Clear,230,2013-06-19 16:35:00
10:55 AM,77.0,23.0,13,29.78,10.0,SW,10.4,29.9,N/A,,Clear,220,2013-06-19 16:55:00
11:15 AM,77.0,24.8,14,29.78,10.0,SW,19.6,43.7,N/A,,Clear,220,2013-06-19 17:15:00
11:35 AM,75.2,23.0,14,29.79,10.0,SW,21.9,34.5,N/A,,Clear,230,2013-06-19 17:35:00
11:55 AM,77.0,23.0,13,29.80,10.0,SW,17.3,43.7,N/A,,Clear,220,2013-06-19 17:55:00
12:15 PM,77.0,23.0,13,29.80,10.0,SSW,20.7,41.4,N/A,,Clear,210,2013-06-19 18:15:00
12:35 PM,77.0,23.0,13,29.80,10.0,SSW,25.3,35.7,N/A,,Clear,210,2013-06-19 18:35:00
12:55 PM,77.0,23.0,13,29.80,10.0,SW,12.7,36.8,N/A,,Clear,220,2013-06-19 18:55:00
1:15 PM,77.0,24.8,14,29.81,10.0,SW,26.5,41.4,N/A,,Clear,220,2013-06-19 19:15:00
1:35 PM,77.0,26.6,16,29.82,10.0,WSW,21.9,28.8,N/A,,Clear,240,2013-06-19 19:35:00
1:55 PM,78.8,28.4,16,29.83,10.0,WSW,19.6,27.6,N/A,,Clear,250,2013-06-19 19:55:00
2:15 PM,78.8,28.4,16,29.83,10.0,SW,21.9,26.5,N/A,,Clear,230,2013-06-19 20:15:00
2:35 PM,78.8,30.2,17,29.84,10.0,SW,13.8,25.3,N/A,,Clear,220,2013-06-19 20:35:00
2:55 PM,77.0,28.4,17,29.84,10.0,West,16.1,24.2,N/A,,Clear,270,2013-06-19 20:55:00
3:15 PM,78.8,23.0,13,29.84,10.0,West,16.1,33.4,N/A,,Clear,260,2013-06-19 21:15:00
3:35 PM,78.8,26.6,15,29.85,10.0,West,12.7,24.2,N/A,,Clear,260,2013-06-19 21:35:00
3:55 PM,78.8,23.0,13,29.84,10.0,WSW,25.3,29.9,N/A,,Clear,240,2013-06-19 21:55:00
4:15 PM,77.0,23.0,13,29.85,10.0,West,16.1,24.2,N/A,,Clear,270,2013-06-19 22:15:00
4:35 PM,78.8,21.2,12,29.85,10.0,West,16.1,23.0,N/A,,Clear,270,2013-06-19 22:35:00
4:55 PM,78.8,21.2,12,29.84,10.0,West,12.7,-,N/A,,Clear,260,2013-06-19 22:55:00
5:15 PM,80.6,23.0,12,29.84,10.0,WNW,18.4,21.9,N/A,,Clear,290,2013-06-19 23:15:00
5:35 PM,78.8,24.8,14,29.85,10.0,NW,13.8,-,N/A,,Clear,310,2013-06-19 23:35:00
5:55 PM,77.0,21.2,12,29.86,10.0,NW,15.0,-,N/A,,Clear,310,2013-06-19 23:55:00
6:15 PM,73.4,19.4,13,29.87,10.0,WNW,13.8,25.3,N/A,,Clear,300,2013-06-20 00:15:00
6:35 PM,73.4,19.4,13,29.88,10.0,WNW,10.4,-,N/A,,Clear,300,2013-06-20 00:35:00
6:55 PM,71.6,19.4,14,29.89,10.0,NW,8.1,-,N/A,,Clear,310,2013-06-20 00:55:00
7:15 PM,68.0,19.4,16,29.91,10.0,North,11.5,-,N/A,,Clear,10,2013-06-20 01:15:00
7:35 PM,64.4,17.6,16,29.92,10.0,NNE,12.7,21.9,N/A,,Clear,30,2013-06-20 01:35:00
7:55 PM,62.6,19.4,19,29.94,10.0,North,17.3,-,N/A,,Clear,10,2013-06-20 01:55:00
8:15 PM,60.8,19.4,20,29.95,10.0,NE,12.7,24.2,N/A,,Clear,40,2013-06-20 02:15:00
8:35 PM,60.8,19.4,20,29.96,10.0,East,9.2,-,N/A,,Clear,100,2013-06-20 02:35:00
8:55 PM,59.0,19.4,22,29.97,10.0,East,9.2,16.1,N/A,,Clear,90,2013-06-20 02:55:00
9:15 PM,59.0,19.4,22,29.98,10.0,East,8.1,-,N/A,,Clear,90,2013-06-20 03:15:00
9:35 PM,59.0,19.4,22,29.99,10.0,NE,10.4,-,N/A,,Clear,40,2013-06-20 03:35:00
9:55 PM,57.2,19.4,23,29.99,10.0,ESE,6.9,-,N/A,,Clear,110,2013-06-20 03:55:00
10:15 PM,55.4,19.4,25,29.99,10.0,ENE,3.5,-,N/A,,Clear,70,2013-06-20 04:15:00
10:35 PM,53.6,19.4,26,30.01,10.0,East,3.5,-,N/A,,Clear,100,2013-06-20 04:35:00
10:55 PM,53.6,21.2,28,30.00,10.0,East,3.5,-,N/A,,Clear,80,2013-06-20 04:55:00
11:15 PM,51.8,21.2,30,30.00,10.0,East,4.6,-,N/A,,Clear,90,2013-06-20 05:15:00
11:35 PM,46.4,28.4,50,30.01,10.0,SE,6.9,-,N/A,,Clear,130,2013-06-20 05:35:00
11:55 PM,46.4,23.0,40,30.01,10.0,ESE,8.1,-,N/A,,Clear,110,2013-06-20 05:55:00